sensor_id;sensor_type;location;lat;lon;timestamp;temperature;humidity
53268;DHT22;39156;51.176;6.738;2023-06-04T00:01:53;15.60;39.40
53268;DHT22;39156;51.176;6.738;2023-06-04T00:04:18;15.60;39.50
53268;DHT22;39156;51.176;6.738;2023-06-04T00:06:44;15.60;39.60
53268;DHT22;39156;51.176;6.738;2023-06-04T00:09:10;15.60;39.80
53268;DHT22;39156;51.176;6.738;2023-06-04T00:11:35;15.60;40.20
53268;DHT22;39156;51.176;6.738;2023-06-04T00:14:02;15.50;40.80
53268;DHT22;39156;51.176;6.738;2023-06-04T00:16:28;15.50;41.00
53268;DHT22;39156;51.176;6.738;2023-06-04T00:18:53;15.50;41.20
53268;DHT22;39156;51.176;6.738;2023-06-04T00:21:19;15.40;41.20
53268;DHT22;39156;51.176;6.738;2023-06-04T00:23:45;15.30;40.90
53268;DHT22;39156;51.176;6.738;2023-06-04T00:26:11;15.30;41.00
53268;DHT22;39156;51.176;6.738;2023-06-04T00:28:36;15.40;41.30
53268;DHT22;39156;51.176;6.738;2023-06-04T00:31:05;15.30;41.10
53268;DHT22;39156;51.176;6.738;2023-06-04T00:33:31;15.20;41.40
53268;DHT22;39156;51.176;6.738;2023-06-04T00:35:57;15.20;42.30
53268;DHT22;39156;51.176;6.738;2023-06-04T00:38:23;15.10;42.50
53268;DHT22;39156;51.176;6.738;2023-06-04T00:40:51;15.20;42.90
53268;DHT22;39156;51.176;6.738;2023-06-04T00:43:17;15.10;43.30
53268;DHT22;39156;51.176;6.738;2023-06-04T00:45:44;15.00;43.40
53268;DHT22;39156;51.176;6.738;2023-06-04T00:48:09;15.00;43.70
53268;DHT22;39156;51.176;6.738;2023-06-04T00:50:36;14.90;43.90
53268;DHT22;39156;51.176;6.738;2023-06-04T00:53:04;14.80;43.90
53268;DHT22;39156;51.176;6.738;2023-06-04T00:55:30;14.90;44.30
53268;DHT22;39156;51.176;6.738;2023-06-04T00:57:57;14.80;44.00
53268;DHT22;39156;51.176;6.738;2023-06-04T01:00:23;14.80;43.70
53268;DHT22;39156;51.176;6.738;2023-06-04T01:02:51;14.70;43.40
53268;DHT22;39156;51.176;6.738;2023-06-04T01:08:03;14.60;43.60
53268;DHT22;39156;51.176;6.738;2023-06-04T01:10:29;14.50;43.70
53268;DHT22;39156;51.176;6.738;2023-06-04T01:12:55;14.40;43.50
53268;DHT22;39156;51.176;6.738;2023-06-04T01:15:20;14.50;43.50
53268;DHT22;39156;51.176;6.738;2023-06-04T01:17:50;14.40;43.90
53268;DHT22;39156;51.176;6.738;2023-06-04T01:23:08;14.40;44.10
53268;DHT22;39156;51.176;6.738;2023-06-04T01:25:41;14.30;44.40
53268;DHT22;39156;51.176;6.738;2023-06-04T01:28:10;14.30;44.50
53268;DHT22;39156;51.176;6.738;2023-06-04T01:30:39;14.20;44.40
53268;DHT22;39156;51.176;6.738;2023-06-04T01:33:12;14.40;44.60
53268;DHT22;39156;51.176;6.738;2023-06-04T01:35:39;14.20;44.50
53268;DHT22;39156;51.176;6.738;2023-06-04T01:38:06;14.10;44.40
53268;DHT22;39156;51.176;6.738;2023-06-04T01:40:32;14.10;44.50
53268;DHT22;39156;51.176;6.738;2023-06-04T01:42:58;14.00;44.60
53268;DHT22;39156;51.176;6.738;2023-06-04T01:45:26;13.90;44.70
53268;DHT22;39156;51.176;6.738;2023-06-04T01:47:53;13.90;44.90
53268;DHT22;39156;51.176;6.738;2023-06-04T01:50:20;13.90;44.90
53268;DHT22;39156;51.176;6.738;2023-06-04T01:52:46;13.80;44.80
53268;DHT22;39156;51.176;6.738;2023-06-04T01:55:14;13.90;44.80
53268;DHT22;39156;51.176;6.738;2023-06-04T01:57:41;13.80;44.80
53268;DHT22;39156;51.176;6.738;2023-06-04T02:00:10;13.80;44.90
53268;DHT22;39156;51.176;6.738;2023-06-04T02:02:37;13.80;45.10
53268;DHT22;39156;51.176;6.738;2023-06-04T02:05:04;13.80;45.20
53268;DHT22;39156;51.176;6.738;2023-06-04T02:07:34;13.70;45.30
53268;DHT22;39156;51.176;6.738;2023-06-04T02:10:14;13.70;45.40
53268;DHT22;39156;51.176;6.738;2023-06-04T02:12:55;13.70;45.60
53268;DHT22;39156;51.176;6.738;2023-06-04T02:15:23;13.60;45.80
53268;DHT22;39156;51.176;6.738;2023-06-04T02:17:49;13.70;46.20
53268;DHT22;39156;51.176;6.738;2023-06-04T02:20:16;13.70;46.20
53268;DHT22;39156;51.176;6.738;2023-06-04T02:22:42;13.70;46.40
53268;DHT22;39156;51.176;6.738;2023-06-04T02:25:08;13.70;46.30
53268;DHT22;39156;51.176;6.738;2023-06-04T02:27:35;13.60;46.40
53268;DHT22;39156;51.176;6.738;2023-06-04T02:30:01;13.60;46.50
53268;DHT22;39156;51.176;6.738;2023-06-04T02:32:28;13.50;46.50
53268;DHT22;39156;51.176;6.738;2023-06-04T02:34:54;13.60;46.50
53268;DHT22;39156;51.176;6.738;2023-06-04T02:37:20;13.60;46.30
53268;DHT22;39156;51.176;6.738;2023-06-04T02:39:46;13.50;46.30
53268;DHT22;39156;51.176;6.738;2023-06-04T02:42:12;13.50;46.70
53268;DHT22;39156;51.176;6.738;2023-06-04T02:44:38;13.50;47.00
53268;DHT22;39156;51.176;6.738;2023-06-04T02:47:03;13.40;47.20
53268;DHT22;39156;51.176;6.738;2023-06-04T02:49:30;13.40;47.40
53268;DHT22;39156;51.176;6.738;2023-06-04T02:51:56;13.40;47.10
53268;DHT22;39156;51.176;6.738;2023-06-04T02:54:21;13.40;47.50
53268;DHT22;39156;51.176;6.738;2023-06-04T02:56:47;13.30;47.70
53268;DHT22;39156;51.176;6.738;2023-06-04T02:59:14;13.30;47.90
53268;DHT22;39156;51.176;6.738;2023-06-04T03:01:40;13.20;47.90
53268;DHT22;39156;51.176;6.738;2023-06-04T03:04:06;13.20;47.90
53268;DHT22;39156;51.176;6.738;2023-06-04T03:06:36;13.20;48.20
53268;DHT22;39156;51.176;6.738;2023-06-04T03:09:05;13.10;48.80
53268;DHT22;39156;51.176;6.738;2023-06-04T03:11:32;13.00;48.30
53268;DHT22;39156;51.176;6.738;2023-06-04T03:13:58;13.10;48.70
53268;DHT22;39156;51.176;6.738;2023-06-04T03:16:23;13.10;48.80
53268;DHT22;39156;51.176;6.738;2023-06-04T03:18:49;13.00;48.80
53268;DHT22;39156;51.176;6.738;2023-06-04T03:21:15;13.00;48.90
53268;DHT22;39156;51.176;6.738;2023-06-04T03:23:41;12.90;49.10
53268;DHT22;39156;51.176;6.738;2023-06-04T03:26:07;12.90;49.40
53268;DHT22;39156;51.176;6.738;2023-06-04T03:28:33;12.90;49.60
53268;DHT22;39156;51.176;6.738;2023-06-04T03:30:59;12.80;49.60
53268;DHT22;39156;51.176;6.738;2023-06-04T03:33:25;12.80;49.70
53268;DHT22;39156;51.176;6.738;2023-06-04T03:35:51;12.80;49.80
53268;DHT22;39156;51.176;6.738;2023-06-04T03:38:20;12.70;49.90
53268;DHT22;39156;51.176;6.738;2023-06-04T03:40:46;12.70;49.90
53268;DHT22;39156;51.176;6.738;2023-06-04T03:43:13;12.70;50.00
53268;DHT22;39156;51.176;6.738;2023-06-04T03:45:39;12.70;50.30
53268;DHT22;39156;51.176;6.738;2023-06-04T03:48:05;12.70;50.20
53268;DHT22;39156;51.176;6.738;2023-06-04T03:50:30;12.60;50.40
53268;DHT22;39156;51.176;6.738;2023-06-04T03:52:56;12.60;50.70
53268;DHT22;39156;51.176;6.738;2023-06-04T03:55:22;12.60;50.80
53268;DHT22;39156;51.176;6.738;2023-06-04T03:57:48;12.60;51.00
53268;DHT22;39156;51.176;6.738;2023-06-04T04:00:14;12.60;51.10
53268;DHT22;39156;51.176;6.738;2023-06-04T04:02:41;12.60;52.00
53268;DHT22;39156;51.176;6.738;2023-06-04T04:05:07;12.60;51.50
53268;DHT22;39156;51.176;6.738;2023-06-04T04:07:35;12.70;51.50
53268;DHT22;39156;51.176;6.738;2023-06-04T04:10:01;12.70;51.70
53268;DHT22;39156;51.176;6.738;2023-06-04T04:12:27;12.70;51.60
53268;DHT22;39156;51.176;6.738;2023-06-04T04:14:52;12.70;51.80
53268;DHT22;39156;51.176;6.738;2023-06-04T04:17:18;12.90;52.00
53268;DHT22;39156;51.176;6.738;2023-06-04T04:19:44;13.10;52.30
53268;DHT22;39156;51.176;6.738;2023-06-04T04:22:13;13.50;52.30
53268;DHT22;39156;51.176;6.738;2023-06-04T04:24:43;14.00;52.00
53268;DHT22;39156;51.176;6.738;2023-06-04T04:27:09;14.50;51.60
53268;DHT22;39156;51.176;6.738;2023-06-04T04:29:38;14.90;51.10
53268;DHT22;39156;51.176;6.738;2023-06-04T04:32:04;15.50;50.70
53268;DHT22;39156;51.176;6.738;2023-06-04T04:34:37;16.00;50.30
53268;DHT22;39156;51.176;6.738;2023-06-04T04:37:08;16.60;49.40
53268;DHT22;39156;51.176;6.738;2023-06-04T04:39:35;17.20;48.80
53268;DHT22;39156;51.176;6.738;2023-06-04T04:42:01;17.60;48.40
53268;DHT22;39156;51.176;6.738;2023-06-04T04:44:28;18.20;49.30
53268;DHT22;39156;51.176;6.738;2023-06-04T04:46:53;18.60;46.50
53268;DHT22;39156;51.176;6.738;2023-06-04T04:49:19;19.10;45.70
53268;DHT22;39156;51.176;6.738;2023-06-04T04:51:45;19.50;44.80
53268;DHT22;39156;51.176;6.738;2023-06-04T04:54:11;19.90;44.30
53268;DHT22;39156;51.176;6.738;2023-06-04T04:56:37;20.30;46.60
53268;DHT22;39156;51.176;6.738;2023-06-04T04:59:02;20.60;43.20
53268;DHT22;39156;51.176;6.738;2023-06-04T05:01:28;20.90;42.60
53268;DHT22;39156;51.176;6.738;2023-06-04T05:03:54;21.20;42.10
53268;DHT22;39156;51.176;6.738;2023-06-04T05:06:20;21.50;41.50
53268;DHT22;39156;51.176;6.738;2023-06-04T05:08:47;21.70;41.10
53268;DHT22;39156;51.176;6.738;2023-06-04T05:11:13;22.10;43.90
53268;DHT22;39156;51.176;6.738;2023-06-04T05:13:38;22.30;40.60
53268;DHT22;39156;51.176;6.738;2023-06-04T05:16:04;22.50;40.10
53268;DHT22;39156;51.176;6.738;2023-06-04T05:18:37;22.70;39.50
53268;DHT22;39156;51.176;6.738;2023-06-04T05:21:06;22.80;39.00
53268;DHT22;39156;51.176;6.738;2023-06-04T05:23:32;22.80;38.60
53268;DHT22;39156;51.176;6.738;2023-06-04T05:26:00;22.90;38.50
53268;DHT22;39156;51.176;6.738;2023-06-04T05:28:27;23.00;38.50
53268;DHT22;39156;51.176;6.738;2023-06-04T05:30:53;23.20;38.40
53268;DHT22;39156;51.176;6.738;2023-06-04T05:33:24;23.40;38.40
53268;DHT22;39156;51.176;6.738;2023-06-04T05:35:53;23.60;38.50
53268;DHT22;39156;51.176;6.738;2023-06-04T05:38:25;23.80;38.20
53268;DHT22;39156;51.176;6.738;2023-06-04T05:40:54;24.10;38.20
53268;DHT22;39156;51.176;6.738;2023-06-04T05:43:21;24.30;37.70
53268;DHT22;39156;51.176;6.738;2023-06-04T05:45:47;24.50;37.60
53268;DHT22;39156;51.176;6.738;2023-06-04T05:48:12;24.70;37.30
53268;DHT22;39156;51.176;6.738;2023-06-04T05:50:38;24.90;37.10
53268;DHT22;39156;51.176;6.738;2023-06-04T05:53:04;25.10;39.60
53268;DHT22;39156;51.176;6.738;2023-06-04T05:55:29;25.30;37.30
53268;DHT22;39156;51.176;6.738;2023-06-04T05:57:56;25.60;39.70
53268;DHT22;39156;51.176;6.738;2023-06-04T06:00:22;25.70;37.30
53268;DHT22;39156;51.176;6.738;2023-06-04T06:02:52;25.90;36.50
53268;DHT22;39156;51.176;6.738;2023-06-04T06:05:18;26.10;36.30
53268;DHT22;39156;51.176;6.738;2023-06-04T06:07:45;26.40;36.20
53268;DHT22;39156;51.176;6.738;2023-06-04T06:10:11;26.70;35.70
53268;DHT22;39156;51.176;6.738;2023-06-04T06:12:37;26.90;35.20
53268;DHT22;39156;51.176;6.738;2023-06-04T06:15:03;27.30;34.50
53268;DHT22;39156;51.176;6.738;2023-06-04T06:17:30;27.50;34.20
53268;DHT22;39156;51.176;6.738;2023-06-04T06:19:56;27.70;34.10
53268;DHT22;39156;51.176;6.738;2023-06-04T06:22:22;28.10;34.10
53268;DHT22;39156;51.176;6.738;2023-06-04T06:24:48;28.30;34.00
53268;DHT22;39156;51.176;6.738;2023-06-04T06:27:14;28.50;33.80
53268;DHT22;39156;51.176;6.738;2023-06-04T06:29:43;28.60;33.60
53268;DHT22;39156;51.176;6.738;2023-06-04T06:32:10;28.70;33.30
53268;DHT22;39156;51.176;6.738;2023-06-04T06:34:36;28.80;32.90
53268;DHT22;39156;51.176;6.738;2023-06-04T06:37:06;28.80;32.60
53268;DHT22;39156;51.176;6.738;2023-06-04T06:39:32;28.90;32.30
53268;DHT22;39156;51.176;6.738;2023-06-04T06:41:57;28.90;32.30
53268;DHT22;39156;51.176;6.738;2023-06-04T06:44:23;29.00;32.40
53268;DHT22;39156;51.176;6.738;2023-06-04T06:46:49;29.10;32.50
53268;DHT22;39156;51.176;6.738;2023-06-04T06:49:15;29.20;32.30
53268;DHT22;39156;51.176;6.738;2023-06-04T06:51:41;29.20;32.00
53268;DHT22;39156;51.176;6.738;2023-06-04T06:54:10;29.40;31.50
53268;DHT22;39156;51.176;6.738;2023-06-04T06:56:35;29.40;31.40
53268;DHT22;39156;51.176;6.738;2023-06-04T06:59:01;29.50;30.90
53268;DHT22;39156;51.176;6.738;2023-06-04T07:01:27;29.60;30.90
53268;DHT22;39156;51.176;6.738;2023-06-04T07:03:53;29.70;30.60
53268;DHT22;39156;51.176;6.738;2023-06-04T07:06:19;29.80;30.60
53268;DHT22;39156;51.176;6.738;2023-06-04T07:08:44;29.80;31.30
53268;DHT22;39156;51.176;6.738;2023-06-04T07:11:13;30.00;30.30
53268;DHT22;39156;51.176;6.738;2023-06-04T07:13:39;30.00;30.20
53268;DHT22;39156;51.176;6.738;2023-06-04T07:16:05;30.20;30.20
53268;DHT22;39156;51.176;6.738;2023-06-04T07:18:31;30.20;30.10
53268;DHT22;39156;51.176;6.738;2023-06-04T07:21:00;30.30;30.00
53268;DHT22;39156;51.176;6.738;2023-06-04T07:24:00;30.40;30.40
53268;DHT22;39156;51.176;6.738;2023-06-04T07:26:36;30.70;30.30
53268;DHT22;39156;51.176;6.738;2023-06-04T07:29:02;30.80;30.10
53268;DHT22;39156;51.176;6.738;2023-06-04T07:31:28;31.00;29.70
53268;DHT22;39156;51.176;6.738;2023-06-04T07:33:53;31.10;29.00
53268;DHT22;39156;51.176;6.738;2023-06-04T07:36:19;31.30;28.80
53268;DHT22;39156;51.176;6.738;2023-06-04T07:38:46;31.30;28.90
53268;DHT22;39156;51.176;6.738;2023-06-04T07:41:11;31.30;29.10
53268;DHT22;39156;51.176;6.738;2023-06-04T07:43:37;31.40;28.90
53268;DHT22;39156;51.176;6.738;2023-06-04T07:46:03;31.50;29.00
53268;DHT22;39156;51.176;6.738;2023-06-04T07:48:29;31.70;29.20
53268;DHT22;39156;51.176;6.738;2023-06-04T07:50:59;31.80;29.20
53268;DHT22;39156;51.176;6.738;2023-06-04T07:53:25;32.10;29.20
53268;DHT22;39156;51.176;6.738;2023-06-04T07:55:51;32.30;28.80
53268;DHT22;39156;51.176;6.738;2023-06-04T07:58:17;32.50;28.70
53268;DHT22;39156;51.176;6.738;2023-06-04T08:00:43;32.60;28.60
53268;DHT22;39156;51.176;6.738;2023-06-04T08:03:09;32.70;28.40
53268;DHT22;39156;51.176;6.738;2023-06-04T08:05:35;32.80;28.40
53268;DHT22;39156;51.176;6.738;2023-06-04T08:08:01;32.90;28.40
53268;DHT22;39156;51.176;6.738;2023-06-04T08:10:27;32.90;28.30
53268;DHT22;39156;51.176;6.738;2023-06-04T08:12:52;33.00;28.00
53268;DHT22;39156;51.176;6.738;2023-06-04T08:15:18;33.10;27.60
53268;DHT22;39156;51.176;6.738;2023-06-04T08:17:44;33.00;27.10
53268;DHT22;39156;51.176;6.738;2023-06-04T08:20:09;32.90;27.00
53268;DHT22;39156;51.176;6.738;2023-06-04T08:22:35;32.70;27.10
53268;DHT22;39156;51.176;6.738;2023-06-04T08:25:01;32.40;27.10
53268;DHT22;39156;51.176;6.738;2023-06-04T08:27:26;32.20;27.20
53268;DHT22;39156;51.176;6.738;2023-06-04T08:29:52;32.10;27.50
53268;DHT22;39156;51.176;6.738;2023-06-04T08:32:18;32.10;27.50
53268;DHT22;39156;51.176;6.738;2023-06-04T08:34:44;32.10;27.40
53268;DHT22;39156;51.176;6.738;2023-06-04T08:37:10;32.00;27.30
53268;DHT22;39156;51.176;6.738;2023-06-04T08:39:35;31.90;27.10
53268;DHT22;39156;51.176;6.738;2023-06-04T08:42:04;31.90;27.60
53268;DHT22;39156;51.176;6.738;2023-06-04T08:44:35;31.80;27.30
53268;DHT22;39156;51.176;6.738;2023-06-04T08:47:04;31.80;27.40
53268;DHT22;39156;51.176;6.738;2023-06-04T08:49:35;31.80;27.40
53268;DHT22;39156;51.176;6.738;2023-06-04T08:52:02;31.70;27.20
53268;DHT22;39156;51.176;6.738;2023-06-04T08:54:29;31.60;27.50
53268;DHT22;39156;51.176;6.738;2023-06-04T08:56:56;31.50;27.50
53268;DHT22;39156;51.176;6.738;2023-06-04T08:59:23;31.30;27.30
53268;DHT22;39156;51.176;6.738;2023-06-04T09:01:55;31.30;27.40
53268;DHT22;39156;51.176;6.738;2023-06-04T09:04:21;31.20;27.60
53268;DHT22;39156;51.176;6.738;2023-06-04T09:06:48;31.20;27.70
53268;DHT22;39156;51.176;6.738;2023-06-04T09:09:15;31.10;27.70
53268;DHT22;39156;51.176;6.738;2023-06-04T09:11:49;31.10;27.60
53268;DHT22;39156;51.176;6.738;2023-06-04T09:14:17;31.10;27.70
53268;DHT22;39156;51.176;6.738;2023-06-04T09:16:53;31.10;27.40
53268;DHT22;39156;51.176;6.738;2023-06-04T09:19:21;30.90;27.60
53268;DHT22;39156;51.176;6.738;2023-06-04T09:22:00;30.70;27.40
53268;DHT22;39156;51.176;6.738;2023-06-04T09:24:43;30.60;28.20
53268;DHT22;39156;51.176;6.738;2023-06-04T09:27:15;30.50;27.70
53268;DHT22;39156;51.176;6.738;2023-06-04T09:29:54;30.50;27.50
53268;DHT22;39156;51.176;6.738;2023-06-04T09:32:29;30.50;27.60
53268;DHT22;39156;51.176;6.738;2023-06-04T09:35:07;30.30;27.50
53268;DHT22;39156;51.176;6.738;2023-06-04T09:37:37;30.30;27.60
53268;DHT22;39156;51.176;6.738;2023-06-04T09:40:03;30.20;27.50
53268;DHT22;39156;51.176;6.738;2023-06-04T09:42:30;30.10;27.60
53268;DHT22;39156;51.176;6.738;2023-06-04T09:45:07;30.00;27.70
53268;DHT22;39156;51.176;6.738;2023-06-04T09:47:43;29.80;28.10
53268;DHT22;39156;51.176;6.738;2023-06-04T09:50:11;29.80;27.80
53268;DHT22;39156;51.176;6.738;2023-06-04T09:52:37;29.80;27.90
53268;DHT22;39156;51.176;6.738;2023-06-04T09:55:15;29.80;27.90
53268;DHT22;39156;51.176;6.738;2023-06-04T09:57:46;29.80;27.90
53268;DHT22;39156;51.176;6.738;2023-06-04T10:00:16;29.70;27.80
53268;DHT22;39156;51.176;6.738;2023-06-04T10:02:44;29.60;27.70
53268;DHT22;39156;51.176;6.738;2023-06-04T10:05:14;29.50;27.70
53268;DHT22;39156;51.176;6.738;2023-06-04T10:07:42;29.30;27.70
53268;DHT22;39156;51.176;6.738;2023-06-04T10:10:16;29.10;28.40
53268;DHT22;39156;51.176;6.738;2023-06-04T10:12:45;28.80;27.90
53268;DHT22;39156;51.176;6.738;2023-06-04T10:15:17;28.50;27.80
53268;DHT22;39156;51.176;6.738;2023-06-04T10:17:43;28.20;27.90
53268;DHT22;39156;51.176;6.738;2023-06-04T10:20:09;27.90;28.10
53268;DHT22;39156;51.176;6.738;2023-06-04T10:22:36;27.70;28.30
53268;DHT22;39156;51.176;6.738;2023-06-04T10:25:02;27.50;28.40
53268;DHT22;39156;51.176;6.738;2023-06-04T10:27:30;27.40;28.60
53268;DHT22;39156;51.176;6.738;2023-06-04T10:29:56;27.10;28.40
53268;DHT22;39156;51.176;6.738;2023-06-04T10:32:22;26.90;28.60
53268;DHT22;39156;51.176;6.738;2023-06-04T10:34:52;26.70;28.90
53268;DHT22;39156;51.176;6.738;2023-06-04T10:37:21;26.60;28.90
53268;DHT22;39156;51.176;6.738;2023-06-04T10:39:52;26.40;29.00
53268;DHT22;39156;51.176;6.738;2023-06-04T10:42:23;26.20;29.10
53268;DHT22;39156;51.176;6.738;2023-06-04T10:44:54;26.20;29.20
53268;DHT22;39156;51.176;6.738;2023-06-04T10:47:24;26.10;29.20
53268;DHT22;39156;51.176;6.738;2023-06-04T10:49:53;26.10;29.20
53268;DHT22;39156;51.176;6.738;2023-06-04T10:52:20;25.90;29.30
53268;DHT22;39156;51.176;6.738;2023-06-04T10:54:47;25.90;29.40
53268;DHT22;39156;51.176;6.738;2023-06-04T10:57:18;25.80;29.30
53268;DHT22;39156;51.176;6.738;2023-06-04T10:59:58;25.70;29.30
53268;DHT22;39156;51.176;6.738;2023-06-04T11:02:25;25.80;29.50
53268;DHT22;39156;51.176;6.738;2023-06-04T11:05:05;25.70;29.50
53268;DHT22;39156;51.176;6.738;2023-06-04T11:07:44;25.60;29.50
53268;DHT22;39156;51.176;6.738;2023-06-04T11:10:12;25.60;29.80
53268;DHT22;39156;51.176;6.738;2023-06-04T11:12:46;25.70;29.60
53268;DHT22;39156;51.176;6.738;2023-06-04T11:15:14;25.60;29.50
53268;DHT22;39156;51.176;6.738;2023-06-04T11:17:58;25.50;29.70
53268;DHT22;39156;51.176;6.738;2023-06-04T11:20:24;25.50;29.60
53268;DHT22;39156;51.176;6.738;2023-06-04T11:22:50;25.50;30.00
53268;DHT22;39156;51.176;6.738;2023-06-04T11:25:17;25.50;29.60
53268;DHT22;39156;51.176;6.738;2023-06-04T11:27:43;25.50;29.70
53268;DHT22;39156;51.176;6.738;2023-06-04T11:30:09;25.50;29.50
53268;DHT22;39156;51.176;6.738;2023-06-04T11:32:37;25.60;29.50
53268;DHT22;39156;51.176;6.738;2023-06-04T11:35:25;25.60;29.80
53268;DHT22;39156;51.176;6.738;2023-06-04T11:37:55;25.70;29.80
53268;DHT22;39156;51.176;6.738;2023-06-04T11:40:22;25.70;29.70
53268;DHT22;39156;51.176;6.738;2023-06-04T11:42:48;25.70;29.50
53268;DHT22;39156;51.176;6.738;2023-06-04T11:45:16;25.80;29.70
53268;DHT22;39156;51.176;6.738;2023-06-04T11:47:52;25.70;29.40
53268;DHT22;39156;51.176;6.738;2023-06-04T11:50:19;25.70;29.50
53268;DHT22;39156;51.176;6.738;2023-06-04T11:52:47;25.80;29.70
53268;DHT22;39156;51.176;6.738;2023-06-04T11:55:14;25.80;29.90
53268;DHT22;39156;51.176;6.738;2023-06-04T11:57:43;25.80;29.70
53268;DHT22;39156;51.176;6.738;2023-06-04T12:00:09;25.80;29.50
53268;DHT22;39156;51.176;6.738;2023-06-04T12:02:36;25.80;29.60
53268;DHT22;39156;51.176;6.738;2023-06-04T12:05:13;25.80;29.60
53268;DHT22;39156;51.176;6.738;2023-06-04T12:07:39;25.80;29.80
53268;DHT22;39156;51.176;6.738;2023-06-04T12:10:09;25.80;29.70
53268;DHT22;39156;51.176;6.738;2023-06-04T12:12:37;25.70;29.70
53268;DHT22;39156;51.176;6.738;2023-06-04T12:15:03;25.70;29.60
53268;DHT22;39156;51.176;6.738;2023-06-04T12:17:31;25.70;29.60
53268;DHT22;39156;51.176;6.738;2023-06-04T12:19:57;25.70;29.90
53268;DHT22;39156;51.176;6.738;2023-06-04T12:22:24;25.70;29.90
53268;DHT22;39156;51.176;6.738;2023-06-04T12:24:56;25.70;29.80
53268;DHT22;39156;51.176;6.738;2023-06-04T12:27:23;25.70;29.40
53268;DHT22;39156;51.176;6.738;2023-06-04T12:29:58;25.70;29.40
53268;DHT22;39156;51.176;6.738;2023-06-04T12:32:26;25.80;29.30
53268;DHT22;39156;51.176;6.738;2023-06-04T12:34:52;25.90;29.30
53268;DHT22;39156;51.176;6.738;2023-06-04T12:37:18;25.90;29.20
53268;DHT22;39156;51.176;6.738;2023-06-04T12:39:44;26.00;28.90
53268;DHT22;39156;51.176;6.738;2023-06-04T12:42:09;26.00;29.10
53268;DHT22;39156;51.176;6.738;2023-06-04T12:44:36;26.00;28.90
53268;DHT22;39156;51.176;6.738;2023-06-04T12:47:03;26.00;28.80
53268;DHT22;39156;51.176;6.738;2023-06-04T12:49:29;26.00;28.50
53268;DHT22;39156;51.176;6.738;2023-06-04T12:51:55;26.00;28.70
53268;DHT22;39156;51.176;6.738;2023-06-04T12:54:21;25.80;28.40
53268;DHT22;39156;51.176;6.738;2023-06-04T12:56:46;25.70;28.10
53268;DHT22;39156;51.176;6.738;2023-06-04T12:59:12;25.80;28.00
53268;DHT22;39156;51.176;6.738;2023-06-04T13:01:38;25.70;27.90
53268;DHT22;39156;51.176;6.738;2023-06-04T13:04:04;25.60;28.30
53268;DHT22;39156;51.176;6.738;2023-06-04T13:06:31;25.50;28.40
53268;DHT22;39156;51.176;6.738;2023-06-04T13:08:57;25.50;28.50
53268;DHT22;39156;51.176;6.738;2023-06-04T13:11:22;25.40;28.50
53268;DHT22;39156;51.176;6.738;2023-06-04T13:13:48;25.30;28.50
53268;DHT22;39156;51.176;6.738;2023-06-04T13:16:14;25.40;28.80
53268;DHT22;39156;51.176;6.738;2023-06-04T13:18:40;25.30;28.80
53268;DHT22;39156;51.176;6.738;2023-06-04T13:21:05;25.30;28.70
53268;DHT22;39156;51.176;6.738;2023-06-04T13:23:31;25.30;28.80
53268;DHT22;39156;51.176;6.738;2023-06-04T13:25:57;25.30;28.90
53268;DHT22;39156;51.176;6.738;2023-06-04T13:28:40;25.40;28.70
53268;DHT22;39156;51.176;6.738;2023-06-04T13:31:06;25.40;28.80
53268;DHT22;39156;51.176;6.738;2023-06-04T13:33:32;25.40;28.60
53268;DHT22;39156;51.176;6.738;2023-06-04T13:36:00;25.40;28.50
53268;DHT22;39156;51.176;6.738;2023-06-04T13:38:29;25.40;28.50
53268;DHT22;39156;51.176;6.738;2023-06-04T13:40:54;25.40;28.60
53268;DHT22;39156;51.176;6.738;2023-06-04T13:43:20;25.40;28.50
53268;DHT22;39156;51.176;6.738;2023-06-04T13:45:46;25.50;28.50
53268;DHT22;39156;51.176;6.738;2023-06-04T13:48:12;25.50;28.60
53268;DHT22;39156;51.176;6.738;2023-06-04T13:50:38;25.50;28.80
53268;DHT22;39156;51.176;6.738;2023-06-04T13:53:03;25.50;29.00
53268;DHT22;39156;51.176;6.738;2023-06-04T13:55:30;25.50;29.00
53268;DHT22;39156;51.176;6.738;2023-06-04T13:57:55;25.50;29.00
53268;DHT22;39156;51.176;6.738;2023-06-04T14:00:21;25.50;29.30
53268;DHT22;39156;51.176;6.738;2023-06-04T14:02:48;25.50;29.00
53268;DHT22;39156;51.176;6.738;2023-06-04T14:05:14;25.50;29.00
53268;DHT22;39156;51.176;6.738;2023-06-04T14:07:42;25.40;28.90
53268;DHT22;39156;51.176;6.738;2023-06-04T14:10:09;25.40;29.10
53268;DHT22;39156;51.176;6.738;2023-06-04T14:12:38;25.40;28.70
53268;DHT22;39156;51.176;6.738;2023-06-04T14:15:06;25.30;28.70
53268;DHT22;39156;51.176;6.738;2023-06-04T14:17:34;25.30;28.80
53268;DHT22;39156;51.176;6.738;2023-06-04T14:20:03;25.30;29.00
53268;DHT22;39156;51.176;6.738;2023-06-04T14:22:49;25.40;29.10
53268;DHT22;39156;51.176;6.738;2023-06-04T14:25:14;25.30;29.20
53268;DHT22;39156;51.176;6.738;2023-06-04T14:27:40;25.40;28.60
53268;DHT22;39156;51.176;6.738;2023-06-04T14:30:06;25.40;28.90
53268;DHT22;39156;51.176;6.738;2023-06-04T14:32:32;25.40;29.30
53268;DHT22;39156;51.176;6.738;2023-06-04T14:34:59;25.40;29.40
53268;DHT22;39156;51.176;6.738;2023-06-04T14:37:24;25.40;29.40
53268;DHT22;39156;51.176;6.738;2023-06-04T14:39:50;25.40;29.30
53268;DHT22;39156;51.176;6.738;2023-06-04T14:42:18;25.40;29.50
53268;DHT22;39156;51.176;6.738;2023-06-04T14:44:45;25.40;29.50
53268;DHT22;39156;51.176;6.738;2023-06-04T14:47:11;25.30;29.50
53268;DHT22;39156;51.176;6.738;2023-06-04T14:49:37;25.30;29.40
53268;DHT22;39156;51.176;6.738;2023-06-04T14:52:03;25.30;29.40
53268;DHT22;39156;51.176;6.738;2023-06-04T14:54:29;25.20;29.50
53268;DHT22;39156;51.176;6.738;2023-06-04T14:56:55;25.20;29.50
53268;DHT22;39156;51.176;6.738;2023-06-04T14:59:21;25.10;29.40
53268;DHT22;39156;51.176;6.738;2023-06-04T15:01:47;25.10;29.60
53268;DHT22;39156;51.176;6.738;2023-06-04T15:04:13;25.10;29.60
53268;DHT22;39156;51.176;6.738;2023-06-04T15:06:38;25.00;29.80
53268;DHT22;39156;51.176;6.738;2023-06-04T15:09:04;25.00;30.00
53268;DHT22;39156;51.176;6.738;2023-06-04T15:11:30;25.00;30.10
53268;DHT22;39156;51.176;6.738;2023-06-04T15:13:56;25.00;30.00
53268;DHT22;39156;51.176;6.738;2023-06-04T15:16:23;25.00;30.00
53268;DHT22;39156;51.176;6.738;2023-06-04T15:18:49;25.00;30.00
53268;DHT22;39156;51.176;6.738;2023-06-04T15:21:15;25.00;30.00
53268;DHT22;39156;51.176;6.738;2023-06-04T15:23:40;24.90;29.90
53268;DHT22;39156;51.176;6.738;2023-06-04T15:26:06;24.90;29.90
53268;DHT22;39156;51.176;6.738;2023-06-04T15:28:32;24.90;29.90
53268;DHT22;39156;51.176;6.738;2023-06-04T15:30:58;24.90;30.00
53268;DHT22;39156;51.176;6.738;2023-06-04T15:33:23;24.90;30.00
53268;DHT22;39156;51.176;6.738;2023-06-04T15:35:49;24.90;30.00
53268;DHT22;39156;51.176;6.738;2023-06-04T15:38:15;24.90;30.10